createdAt,value
2018-08-27T00:01:43.179Z,18.30
2018-08-27T00:04:17.555Z,18.30
2018-08-27T00:06:53.447Z,18.30
2018-08-27T00:09:29.532Z,18.20
2018-08-27T00:12:03.940Z,18.20
2018-08-27T00:14:38.379Z,18.20
2018-08-27T00:17:14.220Z,18.20
2018-08-27T00:19:49.865Z,18.10
2018-08-27T00:22:25.719Z,18.10
2018-08-27T00:25:01.584Z,18.00
2018-08-27T00:27:36.143Z,18.00
2018-08-27T00:30:12.079Z,18.00
2018-08-27T00:32:46.607Z,17.90
2018-08-27T00:35:20.870Z,17.90
2018-08-27T00:37:55.300Z,17.80
2018-08-27T00:40:29.804Z,17.80
2018-08-27T00:43:05.135Z,17.80
2018-08-27T00:45:39.508Z,17.80
2018-08-27T00:48:15.461Z,17.80
2018-08-27T00:50:49.728Z,17.80
2018-08-27T00:53:24.136Z,17.80
2018-08-27T00:55:59.752Z,17.70
2018-08-27T00:58:35.511Z,17.70
2018-08-27T01:01:11.349Z,17.60
2018-08-27T01:03:47.110Z,17.60
2018-08-27T01:06:23.924Z,17.60
2018-08-27T01:08:59.703Z,17.50
2018-08-27T01:11:35.288Z,17.50
2018-08-27T01:14:09.735Z,17.40
2018-08-27T01:16:44.125Z,17.50
2018-08-27T01:19:21.987Z,17.50
2018-08-27T01:21:57.716Z,17.50
2018-08-27T01:24:32.168Z,17.50
2018-08-27T01:27:06.732Z,17.40
2018-08-27T01:29:42.996Z,17.40
2018-08-27T01:32:22.833Z,17.40
2018-08-27T01:34:59.006Z,17.40
2018-08-27T01:37:33.320Z,17.30
2018-08-27T01:40:07.741Z,17.30
2018-08-27T01:42:42.087Z,17.30
2018-08-27T01:45:18.331Z,17.30
2018-08-27T01:47:52.626Z,17.20
2018-08-27T01:50:27.680Z,17.10
2018-08-27T01:53:02.387Z,17.10
2018-08-27T01:55:38.855Z,17.00
2018-08-27T01:58:15.222Z,17.00
2018-08-27T02:00:52.124Z,17.00
2018-08-27T02:03:28.673Z,16.90
2018-08-27T02:06:05.063Z,16.90
2018-08-27T02:08:41.172Z,16.90
2018-08-27T02:11:15.584Z,16.90
2018-08-27T02:13:50.115Z,16.90
2018-08-27T02:16:24.643Z,16.90
2018-08-27T02:19:01.253Z,16.90
2018-08-27T02:21:38.143Z,16.90
2018-08-27T02:24:12.435Z,16.90
2018-08-27T02:26:46.964Z,16.90
2018-08-27T02:29:23.985Z,16.90
2018-08-27T02:31:58.710Z,16.90
2018-08-27T02:34:33.045Z,16.90
2018-08-27T02:37:07.528Z,16.90
2018-08-27T02:39:44.090Z,16.80
2018-08-27T02:42:18.912Z,16.80
2018-08-27T02:44:55.829Z,16.80
2018-08-27T02:47:30.151Z,16.80
2018-08-27T02:50:04.543Z,16.70
2018-08-27T02:52:39.025Z,16.70
2018-08-27T02:55:13.932Z,16.70
2018-08-27T02:57:50.800Z,16.70
2018-08-27T03:00:38.217Z,16.60
2018-08-27T03:03:12.688Z,16.60
2018-08-27T03:05:57.222Z,16.50
2018-08-27T03:08:40.481Z,16.50
2018-08-27T03:11:14.968Z,16.50
2018-08-27T03:13:49.267Z,16.50
2018-08-27T03:16:23.911Z,16.40
2018-08-27T03:18:59.755Z,16.40
2018-08-27T03:21:36.231Z,16.40
2018-08-27T03:24:10.580Z,16.40
2018-08-27T03:26:44.954Z,16.40
2018-08-27T03:29:22.997Z,16.40
2018-08-27T03:31:57.343Z,16.40
2018-08-27T03:34:31.810Z,16.40
2018-08-27T03:37:10.562Z,16.40
2018-08-27T03:39:45.008Z,16.40
2018-08-27T03:42:19.468Z,16.40
2018-08-27T03:44:55.414Z,16.30
2018-08-27T03:47:29.855Z,16.30
2018-08-27T03:50:04.705Z,16.30
2018-08-27T03:52:41.171Z,16.30
2018-08-27T03:55:15.608Z,16.20
2018-08-27T03:57:50.364Z,16.20
2018-08-27T04:00:40.103Z,16.30
2018-08-27T04:03:14.923Z,16.30
2018-08-27T04:05:59.306Z,16.30
2018-08-27T04:08:36.368Z,16.30
2018-08-27T04:11:10.818Z,16.30
2018-08-27T04:13:45.824Z,16.30
2018-08-27T04:16:21.686Z,16.30
2018-08-27T04:18:57.843Z,16.30
2018-08-27T04:21:35.030Z,16.30
2018-08-27T04:24:09.641Z,16.30
2018-08-27T04:26:44.203Z,16.30
2018-08-27T04:29:20.978Z,16.40
2018-08-27T04:31:59.063Z,16.40
2018-08-27T04:34:33.516Z,16.30
2018-08-27T04:37:07.840Z,16.40
2018-08-27T04:39:42.331Z,16.40
2018-08-27T04:42:16.755Z,16.40
2018-08-27T04:44:53.420Z,16.30
2018-08-27T04:47:30.296Z,16.30
2018-08-27T04:50:04.932Z,16.30
2018-08-27T04:52:40.172Z,16.40
2018-08-27T04:55:14.494Z,16.40
2018-08-27T04:57:49.415Z,16.50
2018-08-27T05:00:43.190Z,16.50
2018-08-27T05:03:17.667Z,16.50
2018-08-27T05:06:00.054Z,16.40
2018-08-27T05:08:41.708Z,16.40
2018-08-27T05:11:16.132Z,16.40
2018-08-27T05:13:52.067Z,16.50
2018-08-27T05:16:26.639Z,16.60
2018-08-27T05:19:02.762Z,16.70
2018-08-27T05:21:42.630Z,16.80
2018-08-27T05:24:18.227Z,16.90
2018-08-27T05:26:52.555Z,17.00
2018-08-27T05:29:27.939Z,16.80
2018-08-27T05:32:02.620Z,16.90
2018-08-27T05:34:38.163Z,17.00
2018-08-27T05:37:12.480Z,16.50
2018-08-27T05:39:48.287Z,16.70
2018-08-27T05:42:22.653Z,16.90
2018-08-27T05:44:58.552Z,17.10
2018-08-27T05:47:32.901Z,17.30
2018-08-27T05:50:07.368Z,17.50
2018-08-27T05:52:41.843Z,17.50
2018-08-27T05:55:17.596Z,17.70
2018-08-27T05:57:51.875Z,17.40
2018-08-27T06:00:43.731Z,17.60
2018-08-27T06:03:19.247Z,17.90
2018-08-27T06:06:02.160Z,18.00
2018-08-27T06:08:37.855Z,18.00
2018-08-27T06:11:13.804Z,18.00
2018-08-27T06:13:48.216Z,18.10
2018-08-27T06:16:22.743Z,18.30
2018-08-27T06:18:57.239Z,18.20
2018-08-27T06:21:39.178Z,18.40
2018-08-27T06:24:20.354Z,18.40
2018-08-27T06:26:55.116Z,18.50
2018-08-27T06:29:30.735Z,18.00
2018-08-27T06:32:04.971Z,18.20
2018-08-27T06:34:40.491Z,18.40
2018-08-27T06:37:14.871Z,18.60
2018-08-27T06:39:49.339Z,18.70
2018-08-27T06:42:23.659Z,18.70
2018-08-27T06:44:59.203Z,18.60
2018-08-27T06:47:33.762Z,18.30
2018-08-27T06:50:08.799Z,18.40
2018-08-27T06:52:43.096Z,18.60
2018-08-27T06:55:17.547Z,18.60
2018-08-27T06:57:51.843Z,18.70
2018-08-27T07:00:27.582Z,18.90
2018-08-27T07:03:03.255Z,19.00
2018-08-27T07:05:39.127Z,19.10
2018-08-27T07:08:15.162Z,19.30
2018-08-27T07:10:50.844Z,19.00
2018-08-27T07:13:26.780Z,18.70
2018-08-27T07:16:02.516Z,18.90
2018-08-27T07:18:38.234Z,19.10
2018-08-27T07:21:14.038Z,19.00
2018-08-27T07:23:49.870Z,19.30
2018-08-27T07:26:24.441Z,19.20
2018-08-27T07:29:00.367Z,19.40
2018-08-27T07:31:36.213Z,19.50
2018-08-27T07:38:15.446Z,19.70
2018-08-27T07:51:08.236Z,20.20
2018-08-27T07:53:42.636Z,19.80
2018-08-27T07:56:17.005Z,20.20
2018-08-27T07:58:51.324Z,20.30
2018-08-27T08:01:27.402Z,20.50
2018-08-27T08:04:03.441Z,20.80
2018-08-27T08:06:39.039Z,21.00
2018-08-27T08:09:14.787Z,21.40
2018-08-27T08:11:49.197Z,21.30
2018-08-27T08:14:23.718Z,21.30
2018-08-27T08:16:59.915Z,21.40
2018-08-27T08:19:34.369Z,21.60
2018-08-27T08:22:10.139Z,21.70
2018-08-27T08:24:44.524Z,21.70
2018-08-27T08:27:19.163Z,21.90
2018-08-27T08:29:54.648Z,22.20
2018-08-27T08:32:29.307Z,22.50
2018-08-27T08:35:03.944Z,22.60
2018-08-27T08:37:38.424Z,22.50
2018-08-27T08:40:12.886Z,22.80
2018-08-27T08:45:28.914Z,22.50
2018-08-27T08:48:03.459Z,22.40
2018-08-27T08:50:37.975Z,22.60
2018-08-27T08:53:12.214Z,22.80
2018-08-27T08:58:22.084Z,23.40
2018-08-27T09:01:04.887Z,23.00
2018-08-27T09:03:40.896Z,23.20
2018-08-27T09:06:16.772Z,23.40
2018-08-27T09:08:52.529Z,23.40
2018-08-27T09:11:26.972Z,23.80
2018-08-27T09:14:03.048Z,24.10
2018-08-27T09:16:38.972Z,24.10
2018-08-27T09:19:13.441Z,24.30
2018-08-27T09:21:49.439Z,24.10
2018-08-27T09:29:33.859Z,24.30
2018-08-27T09:32:08.472Z,23.30
2018-08-27T09:34:42.914Z,23.20
2018-08-27T09:37:17.457Z,23.10
2018-08-27T10:08:29.963Z,23.80
2018-08-27T10:11:06.545Z,25.00
2018-08-27T10:13:40.960Z,25.20
2018-08-27T10:16:15.462Z,25.10
2018-08-27T10:18:50.024Z,25.20
2018-08-27T10:21:32.924Z,25.10
2018-08-27T10:24:07.943Z,24.70
2018-08-27T10:26:42.343Z,23.80
2018-08-27T10:29:21.738Z,23.40
2018-08-27T10:31:56.200Z,23.70
2018-08-27T10:34:30.649Z,23.30
2018-08-27T10:37:05.042Z,23.50
2018-08-27T10:39:39.347Z,23.80
2018-08-27T10:42:13.906Z,23.70
2018-08-27T10:44:49.467Z,23.80
2018-08-27T10:47:24.022Z,24.10
2018-08-27T10:49:58.477Z,24.60
2018-08-27T10:52:32.887Z,24.80
2018-08-27T10:55:08.596Z,24.20
2018-08-27T10:57:43.226Z,24.00
2018-08-27T11:00:20.142Z,24.40
2018-08-27T11:02:56.363Z,24.50
2018-08-27T11:05:32.014Z,24.10
2018-08-27T11:08:08.080Z,23.60
2018-08-27T11:10:43.634Z,23.40
2018-08-27T11:13:19.012Z,23.80
2018-08-27T11:15:53.525Z,23.90
2018-08-27T11:18:28.191Z,23.60
2018-08-27T11:21:02.535Z,23.50
2018-08-27T11:23:38.162Z,24.00
2018-08-27T11:26:12.679Z,24.50
2018-08-27T11:28:47.123Z,24.30
2018-08-27T11:31:24.640Z,23.90
2018-08-27T11:33:59.203Z,23.40
2018-08-27T11:36:33.571Z,23.90
2018-08-27T11:39:10.049Z,24.00
2018-08-27T11:41:45.452Z,23.80
2018-08-27T11:44:23.330Z,24.00
2018-08-27T11:46:59.595Z,24.40
2018-08-27T11:49:35.123Z,24.70
2018-08-27T11:52:11.136Z,25.00
2018-08-27T11:54:46.058Z,25.20
2018-08-27T11:57:22.538Z,25.30
2018-08-27T11:59:57.103Z,24.50
2018-08-27T12:02:34.048Z,24.60
2018-08-27T12:05:10.439Z,25.20
2018-08-27T12:12:56.218Z,25.50
2018-08-27T12:15:31.115Z,25.00
2018-08-27T12:18:06.326Z,25.00
2018-08-27T12:20:41.607Z,24.60
2018-08-27T12:23:17.062Z,24.50
2018-08-27T12:25:51.660Z,24.40
2018-08-27T12:28:26.636Z,24.10
2018-08-27T12:31:02.983Z,23.90
2018-08-27T12:33:37.396Z,24.70
2018-08-27T12:36:12.003Z,25.00
2018-08-27T12:38:46.624Z,25.20
2018-08-27T12:41:21.299Z,24.70
2018-08-27T12:43:56.951Z,24.00
2018-08-27T12:46:31.966Z,24.20
2018-08-27T12:49:07.704Z,24.50
2018-08-27T12:51:43.675Z,24.90
2018-08-27T12:54:19.633Z,25.00
2018-08-27T12:56:54.219Z,24.70
2018-08-27T12:59:33.821Z,24.80
2018-08-27T13:02:09.529Z,24.80
2018-08-27T13:04:45.375Z,25.00
2018-08-27T13:12:30.867Z,25.50
2018-08-27T13:15:05.720Z,25.20
2018-08-27T13:17:40.127Z,25.30
2018-08-27T13:20:14.824Z,24.70
2018-08-27T13:22:50.719Z,24.30
2018-08-27T13:25:25.141Z,24.20
2018-08-27T13:27:59.561Z,24.50
2018-08-27T13:30:35.673Z,24.20
2018-08-27T13:33:09.855Z,24.10
2018-08-27T13:35:44.353Z,24.20
2018-08-27T13:38:18.567Z,24.50
2018-08-27T13:40:53.001Z,24.60
2018-08-27T13:43:29.140Z,24.80
2018-08-27T13:46:05.250Z,24.40
2018-08-27T13:48:39.825Z,24.20
2018-08-27T13:51:15.995Z,23.60
2018-08-27T13:53:50.561Z,23.60
2018-08-27T13:56:26.318Z,23.50
2018-08-27T13:59:00.965Z,23.50
2018-08-27T14:01:36.653Z,24.00
2018-08-27T14:04:12.025Z,23.80
2018-08-27T14:06:47.865Z,23.60
2018-08-27T14:17:07.381Z,24.10
2018-08-27T14:19:42.500Z,23.50
2018-08-27T14:22:18.365Z,23.30
2018-08-27T14:24:52.803Z,23.20
2018-08-27T14:27:27.379Z,23.20
2018-08-27T14:30:03.522Z,23.10
2018-08-27T14:32:37.846Z,23.10
2018-08-27T14:35:12.428Z,23.20
2018-08-27T14:43:01.628Z,23.40
2018-08-27T14:45:37.300Z,24.30
2018-08-27T14:50:54.532Z,24.00
2018-08-27T14:53:28.874Z,24.70
2018-08-27T14:56:03.326Z,25.20
2018-08-27T14:58:37.717Z,25.00
2018-08-27T15:01:14.068Z,24.60
2018-08-27T15:03:48.527Z,25.10
2018-08-27T15:06:24.545Z,25.40
2018-08-27T15:09:00.324Z,25.10
2018-08-27T15:11:35.038Z,25.50
2018-08-27T15:14:09.475Z,25.60
2018-08-27T15:16:43.979Z,25.70
2018-08-27T15:19:18.257Z,25.90
2018-08-27T15:21:54.141Z,25.50
2018-08-27T15:24:28.652Z,25.30
2018-08-27T15:27:03.065Z,25.10
2018-08-27T15:29:39.290Z,24.80
2018-08-27T15:32:22.382Z,24.80
2018-08-27T15:34:56.765Z,24.50
2018-08-27T15:37:31.159Z,24.40
2018-08-27T15:40:06.076Z,24.70
2018-08-27T15:42:41.616Z,25.00
2018-08-27T15:45:17.682Z,24.80
2018-08-27T15:47:53.600Z,24.90
2018-08-27T15:50:28.821Z,25.20
2018-08-27T15:53:04.091Z,24.80
2018-08-27T15:55:39.168Z,24.80
2018-08-27T15:58:13.902Z,24.80
2018-08-27T16:00:49.746Z,25.00
2018-08-27T16:03:25.558Z,25.20
2018-08-27T16:06:02.589Z,25.00
2018-08-27T16:08:38.637Z,25.20
2018-08-27T16:11:13.424Z,24.30
2018-08-27T16:13:47.883Z,24.40
2018-08-27T16:16:22.431Z,24.50
2018-08-27T16:18:57.242Z,24.60
2018-08-27T16:21:37.173Z,24.30
2018-08-27T16:24:11.580Z,24.30
2018-08-27T16:26:47.183Z,24.90
2018-08-27T16:29:25.249Z,25.20
2018-08-27T16:31:59.652Z,25.20
2018-08-27T16:36:04.036Z,25.50
2018-08-27T16:38:38.588Z,25.40
2018-08-27T16:41:13.045Z,24.70
2018-08-27T16:43:48.813Z,24.60
2018-08-27T16:46:24.440Z,24.50
2018-08-27T16:49:00.307Z,24.90
2018-08-27T16:51:36.193Z,24.80
2018-08-27T16:54:12.030Z,25.00
2018-08-27T16:56:46.508Z,25.30
2018-08-27T16:59:20.948Z,25.60
2018-08-27T17:01:56.579Z,25.20
2018-08-27T17:04:38.011Z,25.30
2018-08-27T17:07:13.834Z,25.40
2018-08-27T17:09:49.459Z,24.60
2018-08-27T17:12:24.022Z,24.60
2018-08-27T17:14:59.084Z,24.80
2018-08-27T17:17:33.693Z,24.90
2018-08-27T17:20:12.831Z,24.80
2018-08-27T17:22:48.490Z,24.60
2018-08-27T17:25:22.802Z,24.50
2018-08-27T17:27:57.329Z,24.10
2018-08-27T17:30:33.162Z,24.60
2018-08-27T17:33:07.680Z,25.00
2018-08-27T17:35:43.291Z,25.20
2018-08-27T17:38:17.723Z,24.80
2018-08-27T17:40:53.372Z,24.80
2018-08-27T17:43:28.975Z,25.00
2018-08-27T17:46:04.776Z,25.40
2018-08-27T17:48:40.352Z,25.60
2018-08-27T17:51:16.732Z,25.40
2018-08-27T17:53:51.227Z,25.70
2018-08-27T17:56:28.646Z,25.60
2018-08-27T17:59:03.334Z,25.40
2018-08-27T18:01:40.156Z,25.20
2018-08-27T18:04:14.532Z,25.40
2018-08-27T18:06:50.697Z,25.30
2018-08-27T18:09:27.727Z,25.20
2018-08-27T18:12:02.066Z,25.20
2018-08-27T18:14:37.787Z,25.20
2018-08-27T18:17:12.310Z,25.20
2018-08-27T18:19:46.896Z,24.80
2018-08-27T18:22:22.599Z,25.10
2018-08-27T18:24:58.838Z,25.10
2018-08-27T18:27:33.147Z,24.90
2018-08-27T18:30:10.851Z,24.90
2018-08-27T18:32:45.215Z,24.70
2018-08-27T18:35:21.790Z,24.70
2018-08-27T18:37:57.628Z,24.50
2018-08-27T18:40:33.498Z,24.40
2018-08-27T18:43:09.146Z,24.60
2018-08-27T18:45:45.902Z,24.70
2018-08-27T18:48:20.500Z,24.60
2018-08-27T18:50:56.556Z,24.20
2018-08-27T18:53:31.161Z,23.80
2018-08-27T18:56:07.371Z,23.40
2018-08-27T18:58:42.188Z,23.20
2018-08-27T19:01:31.050Z,23.00
2018-08-27T19:04:05.435Z,23.00
2018-08-27T19:06:41.712Z,22.90
2018-08-27T19:09:17.376Z,22.90
2018-08-27T19:11:51.785Z,23.50
2018-08-27T19:14:28.903Z,23.10
2018-08-27T19:17:03.205Z,23.10
2018-08-27T19:19:38.061Z,23.30
2018-08-27T19:22:13.919Z,23.50
2018-08-27T19:24:49.888Z,23.00
2018-08-27T19:27:24.103Z,23.30
2018-08-27T19:29:59.536Z,23.30
2018-08-27T19:32:35.551Z,23.10
2018-08-27T19:35:10.097Z,22.50
2018-08-27T19:37:45.658Z,22.20
2018-08-27T19:40:20.207Z,22.60
2018-08-27T19:43:01.194Z,22.90
2018-08-27T19:45:37.484Z,22.90
2018-08-27T19:48:13.483Z,22.80
2018-08-27T19:50:50.564Z,22.20
2018-08-27T19:53:26.448Z,21.80
2018-08-27T19:56:01.053Z,21.60
2018-08-27T19:58:35.706Z,21.40
2018-08-27T20:01:28.535Z,21.50
2018-08-27T20:04:04.180Z,21.70
2018-08-27T20:06:41.402Z,21.90
2018-08-27T20:09:18.544Z,22.00
2018-08-27T20:11:53.412Z,22.40
2018-08-27T20:14:27.888Z,22.10
2018-08-27T20:17:02.349Z,22.10
2018-08-27T20:19:37.956Z,22.20
2018-08-27T20:22:14.076Z,21.80
2018-08-27T20:24:48.947Z,21.80
2018-08-27T20:27:23.224Z,21.90
2018-08-27T20:29:59.467Z,22.00
2018-08-27T20:32:33.796Z,22.00
2018-08-27T20:35:09.839Z,21.80
2018-08-27T20:37:44.276Z,21.70
2018-08-27T20:40:18.656Z,21.80
2018-08-27T20:43:01.076Z,22.10
2018-08-27T20:45:37.058Z,21.90
2018-08-27T20:48:11.511Z,21.90
2018-08-27T20:50:46.944Z,21.80
2018-08-27T20:53:21.281Z,21.40
2018-08-27T20:55:57.174Z,21.50
2018-08-27T20:58:31.604Z,21.70
2018-08-27T21:01:07.478Z,21.10
2018-08-27T21:03:43.208Z,21.00
2018-08-27T21:06:27.343Z,21.20
2018-08-27T23:29:25.245Z,21.60
2018-08-27T23:31:59.774Z,22.90
2018-08-27T23:34:34.413Z,22.90
2018-08-27T23:37:10.891Z,23.00
2018-08-27T23:39:46.447Z,23.00
2018-08-27T23:42:20.996Z,22.90
2018-08-27T23:44:56.832Z,22.90
2018-08-27T23:47:32.527Z,22.90
2018-08-27T23:50:06.903Z,22.90
2018-08-27T23:52:41.331Z,22.80
2018-08-27T23:55:15.675Z,22.90
2018-08-27T23:57:50.052Z,22.80
